Time;durP1;ratioP1;P1;durP2;ratioP2;P2;SDS_P1;SDS_P2;PMS_P1;PMS_P2;Temp;Humidity;BMP_temperature;BMP_pressure;BME280_temperature;BME280_humidity;BME280_pressure;Samples;Min_cycle;Max_cycle;Signal;HPM_P1;HPM_P2
2020/12/04 00:03:24;;;;;;;2.15;1.58;;;15.50;66.70;;;;;;10448758;28;20503;-56
2020/12/04 00:08:25;;;;;;;1.63;1.38;;;15.50;66.70;;;;;;10451851;28;20108;-57
2020/12/04 00:13:26;;;;;;;3.22;1.70;;;15.50;66.70;;;;;;10447379;28;20535;-57
2020/12/04 00:18:27;;;;;;;2.97;1.42;;;15.50;66.70;;;;;;10456323;28;20131;-55
2020/12/04 00:23:28;;;;;;;1.50;1.10;;;15.50;66.70;;;;;;10455914;28;20025;-57
2020/12/04 00:28:29;;;;;;;2.78;1.27;;;15.40;66.50;;;;;;10456224;28;20086;-57
2020/12/04 00:33:30;;;;;;;1.90;1.20;;;15.40;66.40;;;;;;10453740;28;20035;-57
2020/12/04 00:38:31;;;;;;;2.35;1.48;;;15.40;66.60;;;;;;10471367;28;20053;-58
2020/12/04 00:43:31;;;;;;;2.97;1.10;;;15.40;66.70;;;;;;10460299;28;20385;-57
2020/12/04 00:48:32;;;;;;;2.05;1.05;;;15.30;66.40;;;;;;10470775;28;20031;-58
2020/12/04 00:53:33;;;;;;;1.65;1.20;;;15.30;66.40;;;;;;10449581;28;20124;-57
2020/12/04 00:58:33;;;;;;;3.38;1.70;;;15.40;66.50;;;;;;10454076;28;20544;-57
2020/12/04 01:03:34;;;;;;;2.38;1.20;;;15.30;66.50;;;;;;10446554;28;20048;-57
2020/12/04 01:08:35;;;;;;;1.40;1.00;;;15.30;66.40;;;;;;10455099;28;20031;-57
2020/12/04 01:13:35;;;;;;;2.03;1.25;;;15.30;66.40;;;;;;10446569;28;20477;-57
2020/12/04 01:18:40;;;;;;;2.42;1.52;;;15.30;66.40;;;;;;10454468;28;20397;-57
2020/12/04 01:23:40;;;;;;;2.00;1.23;;;15.30;66.40;;;;;;10454330;28;20036;-57
2020/12/04 01:28:41;;;;;;;1.67;1.23;;;15.30;66.40;;;;;;10454661;28;20037;-56
2020/12/04 01:33:42;;;;;;;1.60;1.23;;;15.30;66.40;;;;;;10453292;28;20493;-56
2020/12/04 01:38:42;;;;;;;2.58;1.55;;;15.30;66.30;;;;;;10454413;28;20453;-57
2020/12/04 01:43:43;;;;;;;2.22;1.38;;;15.20;66.30;;;;;;10460655;28;20037;-57
2020/12/04 01:48:45;;;;;;;2.10;1.30;;;15.20;66.20;;;;;;10454365;28;20389;-57
2020/12/04 01:53:46;;;;;;;1.75;1.20;;;15.20;66.30;;;;;;10450308;28;20029;-57
2020/12/04 01:58:46;;;;;;;1.85;1.08;;;15.20;66.30;;;;;;10454064;28;20405;-57
2020/12/04 02:03:47;;;;;;;1.70;1.25;;;15.20;66.30;;;;;;10464000;28;20104;-56
2020/12/04 02:09:07;;;;;;;2.75;1.67;;;15.20;66.20;;;;;;10455510;28;20033;-55
2020/12/04 02:14:08;;;;;;;1.70;1.15;;;15.20;66.20;;;;;;10455827;28;20179;-55
2020/12/04 02:19:10;;;;;;;2.10;1.40;;;15.10;66.20;;;;;;10457162;28;20036;-56
2020/12/04 02:24:12;;;;;;;1.50;1.05;;;15.10;66.20;;;;;;10461042;28;20416;-55
2020/12/04 02:29:13;;;;;;;2.45;1.30;;;15.10;66.20;;;;;;10451628;28;20029;-56
2020/12/04 02:34:14;;;;;;;3.20;1.42;;;15.10;66.20;;;;;;10460388;28;20029;-55
2020/12/04 02:39:14;;;;;;;1.58;0.95;;;15.10;66.20;;;;;;10446370;28;20076;-55
2020/12/04 02:44:15;;;;;;;1.90;1.33;;;15.10;66.10;;;;;;10466953;28;20468;-56
2020/12/04 02:49:20;;;;;;;2.17;1.30;;;15.10;66.10;;;;;;10459762;28;20367;-56
2020/12/04 02:54:21;;;;;;;2.28;1.33;;;15.10;66.10;;;;;;10459936;28;20112;-57
2020/12/04 02:59:21;;;;;;;1.50;1.17;;;15.00;66.10;;;;;;10455553;28;20385;-57
2020/12/04 03:04:22;;;;;;;2.25;1.40;;;15.10;66.10;;;;;;10457907;28;20029;-57
2020/12/04 03:09:23;;;;;;;2.17;1.27;;;15.00;66.00;;;;;;10455142;28;20056;-56
2020/12/04 03:14:24;;;;;;;2.58;0.98;;;15.00;66.00;;;;;;10455004;28;20040;-56
2020/12/04 03:19:24;;;;;;;1.88;1.20;;;15.00;66.00;;;;;;10444617;28;20056;-57
2020/12/04 03:24:25;;;;;;;2.28;1.45;;;15.00;66.10;;;;;;10456916;28;20028;-57
2020/12/04 03:29:26;;;;;;;1.58;1.13;;;15.00;66.10;;;;;;10452546;28;20566;-56
2020/12/04 03:34:26;;;;;;;2.20;1.15;;;15.00;66.00;;;;;;10457317;28;20588;-56
2020/12/04 03:39:27;;;;;;;1.45;1.13;;;14.90;65.90;;;;;;10455658;28;20128;-55
2020/12/04 03:44:28;;;;;;;1.20;1.00;;;14.90;66.00;;;;;;10462355;28;20029;-57
2020/12/04 03:49:29;;;;;;;2.35;1.00;;;14.90;66.00;;;;;;10457675;28;20035;-57
2020/12/04 03:54:29;;;;;;;1.60;1.02;;;14.90;66.00;;;;;;10457468;28;20032;-56
2020/12/04 03:59:30;;;;;;;2.00;1.02;;;14.90;66.00;;;;;;10454605;28;20122;-55
2020/12/04 04:04:30;;;;;;;1.30;0.90;;;14.90;66.00;;;;;;10456983;28;20103;-56
2020/12/04 04:09:31;;;;;;;1.52;1.00;;;14.90;66.00;;;;;;10452955;28;20108;-56
2020/12/04 04:14:32;;;;;;;1.83;1.00;;;14.90;66.00;;;;;;10456707;28;20108;-56
2020/12/04 04:19:32;;;;;;;1.40;1.10;;;14.90;66.00;;;;;;10451497;28;20556;-57
2020/12/04 04:24:33;;;;;;;1.55;0.85;;;14.90;66.00;;;;;;10455953;28;20100;-56
2020/12/04 04:29:34;;;;;;;1.58;0.93;;;14.80;65.90;;;;;;10451541;28;20029;-56
2020/12/04 04:34:35;;;;;;;1.48;0.80;;;14.80;66.00;;;;;;10455174;28;20075;-56
2020/12/04 04:39:35;;;;;;;2.33;1.33;;;14.80;66.00;;;;;;10455117;28;20065;-56
2020/12/04 04:44:36;;;;;;;1.13;0.77;;;14.80;66.00;;;;;;10459920;28;20082;-57
2020/12/04 04:49:44;;;;;;;1.85;0.93;;;14.80;66.00;;;;;;10455152;28;20040;-56
2020/12/04 04:54:48;;;;;;;1.25;0.90;;;14.80;66.00;;;;;;10452338;28;20029;-56
2020/12/04 04:59:49;;;;;;;1.80;0.85;;;14.80;66.00;;;;;;10453142;28;20057;-56
2020/12/04 05:04:55;;;;;;;1.48;0.95;;;14.80;65.90;;;;;;10454985;28;20017;-56
2020/12/04 05:10:15;;;;;;;1.50;0.88;;;14.80;65.90;;;;;;10451431;28;20045;-56
2020/12/04 05:15:31;;;;;;;1.40;0.87;;;14.80;65.90;;;;;;10469314;28;20521;-56
2020/12/04 05:20:42;;;;;;;1.77;1.02;;;14.80;65.90;;;;;;10449723;28;20031;-57
2020/12/04 05:25:50;;;;;;;1.40;0.80;;;14.80;65.90;;;;;;10454662;28;20025;-56
2020/12/04 05:31:08;;;;;;;1.40;0.80;;;14.70;65.90;;;;;;10452681;28;20456;-56
2020/12/04 05:36:09;;;;;;;1.30;0.65;;;14.70;65.80;;;;;;10454308;28;20044;-56
2020/12/04 05:41:10;;;;;;;1.10;0.80;;;14.70;65.80;;;;;;10451775;28;20481;-56
2020/12/04 05:46:19;;;;;;;1.38;0.98;;;14.70;65.80;;;;;;10461464;28;20031;-57
2020/12/04 05:51:28;;;;;;;1.30;0.90;;;14.70;65.90;;;;;;10461202;28;20041;-57
2020/12/04 05:56:34;;;;;;;1.27;0.80;;;14.70;65.90;;;;;;10461494;28;20036;-56
2020/12/04 06:01:35;;;;;;;1.73;0.80;;;14.70;65.90;;;;;;10455176;28;20029;-56
2020/12/04 06:06:37;;;;;;;1.20;0.70;;;14.70;65.90;;;;;;10461587;28;20473;-56
2020/12/04 06:11:44;;;;;;;1.23;0.90;;;14.70;65.90;;;;;;10450547;28;20059;-56
2020/12/04 06:17:00;;;;;;;1.63;0.80;;;14.70;65.80;;;;;;10467822;28;20029;-56
2020/12/04 06:22:18;;;;;;;0.65;0.60;;;14.60;65.70;;;;;;10457242;28;20037;-56
2020/12/04 06:27:51;;;;;;;1.30;0.90;;;14.60;65.70;;;;;;10459468;28;20369;-56
2020/12/04 06:32:53;;;;;;;21.70;2.20;;;14.60;65.70;;;;;;10404422;28;20072;-58
2020/12/04 06:37:54;;;;;;;6.05;1.27;;;14.70;66.50;;;;;;10432668;28;20412;-57
2020/12/04 06:42:58;;;;;;;4.03;1.00;;;14.80;67.00;;;;;;10436164;28;20159;-58
2020/12/04 06:48:10;;;;;;;5.75;0.95;;;14.80;67.30;;;;;;10458402;28;20052;-57
2020/12/04 06:53:13;;;;;;;6.57;0.90;;;14.80;67.50;;;;;;10472886;28;20068;-58
2020/12/04 06:58:14;;;;;;;3.65;0.82;;;14.90;67.60;;;;;;10464494;28;20381;-55
2020/12/04 07:03:22;;;;;;;7.65;0.88;;;15.20;66.70;;;;;;10459609;28;20116;-59
2020/12/04 07:08:22;;;;;;;7.32;1.65;;;15.40;66.60;;;;;;10456779;28;20040;-58
2020/12/04 07:13:23;;;;;;;5.93;1.23;;;15.80;65.50;;;;;;10464671;28;20174;-59
2020/12/04 07:18:30;;;;;;;10.32;1.33;;;16.20;63.90;;;;;;10462513;28;20068;-59
2020/12/04 07:23:34;;;;;;;13.55;1.45;;;16.40;63.10;;;;;;10445631;28;20025;-58
2020/12/04 07:28:34;;;;;;;10.20;2.30;;;16.70;62.80;;;;;;10460664;28;20087;-58
2020/12/04 07:33:35;;;;;;;5.38;1.38;;;16.90;62.10;;;;;;10452159;28;20076;-57
2020/12/04 07:38:36;;;;;;;6.97;1.00;;;17.00;61.90;;;;;;10458945;28;20041;-56
2020/12/04 07:43:39;;;;;;;9.48;1.10;;;17.20;61.60;;;;;;10458095;28;20429;-57
2020/12/04 07:48:56;;;;;;;5.47;0.80;;;17.30;61.50;;;;;;10445180;28;20028;-57
2020/12/04 07:53:58;;;;;;;8.00;1.38;;;17.40;61.10;;;;;;10470882;28;20070;-57
2020/12/04 07:59:04;;;;;;;6.18;1.30;;;17.50;60.90;;;;;;10465929;28;20025;-57
2020/12/04 08:04:05;;;;;;;4.68;0.98;;;17.50;61.00;;;;;;10458702;28;20029;-57
2020/12/04 08:09:18;;;;;;;5.45;1.33;;;17.70;60.70;;;;;;10451868;28;20036;-58
2020/12/04 08:14:29;;;;;;;6.68;1.17;;;17.70;60.70;;;;;;10458223;28;20500;-56
2020/12/04 08:19:35;;;;;;;15.63;1.70;;;17.80;60.70;;;;;;10453430;28;20029;-57
2020/12/04 08:24:49;;;;;;;8.90;1.45;;;17.80;60.60;;;;;;10445454;28;20036;-57
2020/12/04 08:30:15;;;;;;;5.72;1.25;;;17.80;60.70;;;;;;10448571;28;20033;-57
2020/12/04 08:35:22;;;;;;;4.97;0.95;;;17.90;61.10;;;;;;10447128;28;20029;-56
2020/12/04 08:40:29;;;;;;;6.32;0.95;;;17.90;60.30;;;;;;10447571;28;20132;-56
2020/12/04 08:45:30;;;;;;;5.55;0.75;;;18.00;60.30;;;;;;10444906;28;20029;-56
2020/12/04 08:50:30;;;;;;;5.47;1.05;;;18.10;60.00;;;;;;10455021;28;20139;-57
2020/12/04 08:55:31;;;;;;;7.53;1.25;;;18.10;59.90;;;;;;10457839;28;20488;-57
2020/12/04 09:00:33;;;;;;;7.05;1.27;;;18.20;59.90;;;;;;10440714;28;20477;-56
2020/12/04 09:05:33;;;;;;;10.70;1.33;;;18.20;59.80;;;;;;10476516;28;20453;-57
2020/12/04 09:10:36;;;;;;;7.53;0.95;;;18.20;60.00;;;;;;10470998;28;20068;-57
2020/12/04 09:15:38;;;;;;;8.73;1.63;;;18.20;59.80;;;;;;10464299;28;20378;-58
2020/12/04 09:20:38;;;;;;;5.70;0.73;;;18.30;59.90;;;;;;10465198;28;20040;-57
2020/12/04 09:25:39;;;;;;;7.90;0.98;;;18.30;60.00;;;;;;10474517;28;20024;-57
2020/12/04 09:30:40;;;;;;;5.05;0.65;;;18.30;59.60;;;;;;10463195;28;20536;-56
2020/12/04 09:35:41;;;;;;;4.47;0.90;;;18.40;59.60;;;;;;10475541;28;20049;-57
2020/12/04 09:40:41;;;;;;;7.45;1.40;;;18.40;59.70;;;;;;10475870;28;20036;-57
2020/12/04 09:45:42;;;;;;;8.73;1.60;;;18.50;59.60;;;;;;10466039;28;20021;-57
2020/12/04 09:50:43;;;;;;;10.95;1.52;;;18.50;59.20;;;;;;10474497;28;20120;-58
2020/12/04 09:55:43;;;;;;;5.22;1.23;;;18.60;59.10;;;;;;10478399;28;20889;-58
2020/12/04 10:00:44;;;;;;;5.25;1.40;;;18.50;59.00;;;;;;10479459;28;20119;-58
2020/12/04 10:05:45;;;;;;;5.68;1.25;;;18.60;58.70;;;;;;10455987;28;20037;-57
2020/12/04 10:10:45;;;;;;;4.25;0.80;;;18.60;58.60;;;;;;10462473;28;20107;-58
2020/12/04 10:15:46;;;;;;;3.63;0.60;;;18.70;58.50;;;;;;10426473;28;20527;-58
2020/12/04 10:20:47;;;;;;;7.72;0.95;;;18.80;58.60;;;;;;10429456;28;20565;-57
2020/12/04 10:25:47;;;;;;;4.82;0.73;;;18.90;58.50;;;;;;10467357;28;20055;-57
2020/12/04 10:30:48;;;;;;;2.70;0.70;;;18.90;58.50;;;;;;10455165;28;20135;-55
2020/12/04 10:35:49;;;;;;;2.00;0.60;;;18.90;58.20;;;;;;10460058;28;20120;-57
2020/12/04 10:40:49;;;;;;;7.07;0.95;;;18.90;58.30;;;;;;10452129;28;20119;-57
2020/12/04 10:45:51;;;;;;;3.28;0.50;;;18.90;58.50;;;;;;10462104;28;20048;-58
2020/12/04 10:50:52;;;;;;;5.07;0.80;;;19.00;58.60;;;;;;10463634;28;20450;-58
2020/12/04 10:55:53;;;;;;;4.95;0.93;;;19.10;58.60;;;;;;10439071;28;20120;-58
2020/12/04 11:00:54;;;;;;;3.97;0.82;;;19.10;58.60;;;;;;10472496;28;20426;-57
2020/12/04 11:05:55;;;;;;;9.00;0.80;;;19.00;58.30;;;;;;10475329;28;20029;-58
2020/12/04 11:10:55;;;;;;;4.10;0.70;;;19.10;58.80;;;;;;10456704;28;20096;-56
2020/12/04 11:15:56;;;;;;;4.90;0.80;;;19.20;58.60;;;;;;10458482;28;20033;-56
2020/12/04 11:20:57;;;;;;;7.20;1.00;;;19.10;59.40;;;;;;10456466;28;20055;-56
2020/12/04 11:25:57;;;;;;;5.28;0.88;;;19.00;59.80;;;;;;10459243;28;20112;-55
2020/12/04 11:30:58;;;;;;;6.93;0.85;;;18.90;60.40;;;;;;10452399;28;20037;-57
2020/12/04 11:35:59;;;;;;;6.25;0.90;;;18.70;60.80;;;;;;10449332;28;20480;-57
2020/12/04 11:41:00;;;;;;;3.67;0.82;;;18.50;61.20;;;;;;10456140;28;20120;-58
2020/12/04 11:46:00;;;;;;;5.35;0.65;;;18.30;62.20;;;;;;10453791;28;20060;-57
2020/12/04 11:51:01;;;;;;;3.95;0.70;;;18.30;62.60;;;;;;10465076;28;20025;-56
2020/12/04 11:56:02;;;;;;;3.42;0.60;;;18.30;62.50;;;;;;10468997;28;20532;-56
2020/12/04 12:01:03;;;;;;;4.40;1.15;;;18.40;62.20;;;;;;10458492;28;20098;-57
2020/12/04 12:06:04;;;;;;;13.93;2.00;;;18.50;61.80;;;;;;10471015;28;20025;-56
2020/12/04 12:11:04;;;;;;;18.85;3.05;;;18.60;61.50;;;;;;10456822;28;20123;-57
2020/12/04 12:16:06;;;;;;;13.68;1.90;;;18.60;61.30;;;;;;10450350;28;20108;-56
2020/12/04 12:21:07;;;;;;;18.73;1.88;;;18.70;61.00;;;;;;10457537;28;20032;-57
2020/12/04 12:26:10;;;;;;;6.85;1.00;;;18.80;60.90;;;;;;10466240;28;20017;-57
2020/12/04 12:31:10;;;;;;;7.68;1.10;;;18.80;60.70;;;;;;10439676;28;20040;-58
2020/12/04 12:36:11;;;;;;;4.75;1.10;;;18.80;61.10;;;;;;10461219;28;20044;-57
2020/12/04 12:41:12;;;;;;;6.50;1.20;;;18.80;61.00;;;;;;10444671;28;20150;-58
2020/12/04 12:46:13;;;;;;;6.00;0.90;;;18.70;61.10;;;;;;10447515;28;20060;-59
2020/12/04 12:51:13;;;;;;;7.70;0.80;;;18.70;61.10;;;;;;10451426;28;20032;-58
2020/12/04 12:56:14;;;;;;;8.55;1.02;;;18.70;61.20;;;;;;10455737;28;20100;-58
2020/12/04 13:01:16;;;;;;;4.13;0.90;;;18.70;61.00;;;;;;10441577;28;20167;-59
2020/12/04 13:06:17;;;;;;;5.18;0.95;;;18.80;60.80;;;;;;10465496;28;20044;-58
2020/12/04 13:11:22;;;;;;;5.55;0.65;;;18.80;60.90;;;;;;10447470;28;20449;-58
2020/12/04 13:16:23;;;;;;;5.10;0.45;;;18.80;60.90;;;;;;10461595;28;20366;-60
2020/12/04 13:21:53;;;;;;;5.95;1.00;;;18.70;60.60;;;;;;10451633;28;20044;-57
2020/12/04 13:26:45;;;;;;;2.58;0.68;;;18.70;61.20;;;;;;10463921;28;20060;-59
2020/12/04 13:31:49;;;;;;;4.50;0.70;;;18.80;61.10;;;;;;10447085;28;20075;-60
2020/12/04 13:36:50;;;;;;;5.50;0.70;;;18.70;61.50;;;;;;10458704;28;20049;-59
2020/12/04 13:41:52;;;;;;;3.30;0.60;;;18.60;61.50;;;;;;10449203;28;20095;-58
2020/12/04 13:46:53;;;;;;;5.30;0.80;;;18.60;61.70;;;;;;10467758;28;20040;-55
2020/12/04 13:51:54;;;;;;;4.53;0.80;;;18.50;61.90;;;;;;10453831;28;20055;-58
2020/12/04 13:56:54;;;;;;;4.55;0.60;;;18.60;61.90;;;;;;10449362;28;20035;-56
2020/12/04 14:01:56;;;;;;;4.32;0.65;;;18.60;61.70;;;;;;10464929;28;20439;-56
2020/12/04 14:06:58;;;;;;;4.60;0.35;;;18.70;61.20;;;;;;10463305;28;20021;-58
2020/12/04 14:11:59;;;;;;;5.10;0.50;;;18.70;61.20;;;;;;10450700;28;20374;-58
2020/12/04 14:17:00;;;;;;;7.72;1.15;;;18.70;61.10;;;;;;10452468;28;20035;-56
2020/12/04 14:22:01;;;;;;;6.78;0.70;;;18.70;61.10;;;;;;10455277;28;20035;-57
2020/12/04 14:27:01;;;;;;;5.50;0.63;;;18.70;61.40;;;;;;10480895;28;20027;-57
2020/12/04 14:32:02;;;;;;;3.38;1.05;;;18.70;61.30;;;;;;10457206;28;20032;-56
2020/12/04 14:37:03;;;;;;;2.25;0.30;;;18.70;61.20;;;;;;10451040;28;20043;-57
2020/12/04 14:42:03;;;;;;;4.95;0.60;;;18.70;61.30;;;;;;10463151;28;20033;-57
2020/12/04 14:47:04;;;;;;;6.88;0.68;;;18.70;61.40;;;;;;10452744;28;20096;-55
2020/12/04 14:52:05;;;;;;;6.30;1.00;;;18.70;61.70;;;;;;10471815;28;20443;-57
2020/12/04 14:57:06;;;;;;;6.38;0.80;;;18.60;61.70;;;;;;10445173;28;20100;-57
2020/12/04 15:02:07;;;;;;;8.82;1.40;;;18.60;62.20;;;;;;10446888;28;20033;-59
2020/12/04 15:07:07;;;;;;;15.23;1.50;;;18.50;62.50;;;;;;10456834;28;20021;-58
2020/12/04 15:12:08;;;;;;;8.35;1.23;;;18.40;62.20;;;;;;10460832;28;20109;-57
2020/12/04 15:17:09;;;;;;;5.93;1.27;;;18.40;61.10;;;;;;10431618;28;20112;-57
2020/12/04 15:22:15;;;;;;;4.88;1.17;;;18.40;61.30;;;;;;10468271;28;20500;-58
2020/12/04 15:27:17;;;;;;;9.50;1.45;;;18.40;61.00;;;;;;10458135;28;20039;-57
2020/12/04 15:32:18;;;;;;;6.68;0.85;;;18.40;61.10;;;;;;10457207;28;20047;-58
2020/12/04 15:37:19;;;;;;;6.47;0.80;;;18.50;61.00;;;;;;10460422;28;20485;-57
2020/12/04 15:42:20;;;;;;;8.20;0.90;;;18.40;60.60;;;;;;10460910;28;20045;-57
2020/12/04 15:47:21;;;;;;;8.40;1.17;;;18.50;60.80;;;;;;10459099;28;20082;-58
2020/12/04 15:52:21;;;;;;;12.18;1.15;;;18.50;60.90;;;;;;10476667;28;20143;-57
2020/12/04 15:57:22;;;;;;;8.77;1.65;;;18.60;61.20;;;;;;10478101;28;20124;-58
2020/12/04 16:02:23;;;;;;;7.40;1.40;;;18.60;61.40;;;;;;10474942;28;20037;-59
2020/12/04 16:07:24;;;;;;;12.30;1.25;;;18.60;61.90;;;;;;10474524;28;20148;-56
2020/12/04 16:12:25;;;;;;;14.98;1.98;;;18.60;61.80;;;;;;10468568;28;20489;-59
2020/12/04 16:17:25;;;;;;;14.48;2.00;;;18.50;62.30;;;;;;10461548;28;20024;-58
2020/12/04 16:22:26;;;;;;;11.77;2.00;;;18.50;62.80;;;;;;10453342;28;20032;-57
2020/12/04 16:27:27;;;;;;;12.93;2.40;;;18.50;62.80;;;;;;10465786;28;20104;-57
2020/12/04 16:32:28;;;;;;;9.57;1.60;;;18.50;62.70;;;;;;10449963;28;20531;-58
2020/12/04 16:37:28;;;;;;;9.20;1.52;;;18.50;62.50;;;;;;10455941;28;20056;-58
2020/12/04 16:42:29;;;;;;;7.22;2.40;;;18.70;62.20;;;;;;10456655;28;20082;-58
2020/12/04 16:47:30;;;;;;;10.77;3.60;;;18.70;62.80;;;;;;10452593;28;20104;-58
2020/12/04 16:52:31;;;;;;;9.35;4.78;;;18.70;63.50;;;;;;10453695;28;20112;-58
2020/12/04 16:57:31;;;;;;;12.88;3.97;;;18.80;64.00;;;;;;10454620;28;20101;-60
2020/12/04 17:02:33;;;;;;;13.13;4.07;;;18.70;63.70;;;;;;10440782;28;20075;-58
2020/12/04 17:07:34;;;;;;;10.00;2.92;;;18.60;62.50;;;;;;10433516;28;20025;-58
2020/12/04 17:12:34;;;;;;;6.78;2.90;;;18.70;61.50;;;;;;10461296;28;20033;-59
2020/12/04 17:17:38;;;;;;;6.28;2.72;;;18.70;62.30;;;;;;10461693;28;20060;-58
2020/12/04 17:22:39;;;;;;;6.80;2.10;;;18.70;63.90;;;;;;10455072;28;20036;-57
2020/12/04 17:27:39;;;;;;;7.88;2.63;;;18.80;64.10;;;;;;10461980;28;20035;-57
2020/12/04 17:32:40;;;;;;;6.57;2.88;;;18.80;64.50;;;;;;10459803;28;20055;-60
2020/12/04 17:37:41;;;;;;;6.30;2.55;;;18.80;64.70;;;;;;10466369;28;20046;-58
2020/12/04 17:42:44;;;;;;;7.13;2.38;;;18.70;65.10;;;;;;10470814;28;20032;-59
2020/12/04 17:47:44;;;;;;;7.65;2.33;;;18.60;65.20;;;;;;10477229;28;20465;-57
2020/12/04 17:52:45;;;;;;;6.82;2.80;;;18.70;64.60;;;;;;10466352;28;20144;-56
2020/12/04 17:57:46;;;;;;;6.32;1.88;;;18.60;64.70;;;;;;10454202;28;20133;-57
2020/12/04 18:02:46;;;;;;;3.72;1.42;;;18.60;64.70;;;;;;10446143;28;20036;-57
2020/12/04 18:07:47;;;;;;;7.65;1.55;;;18.60;64.50;;;;;;10458354;28;20056;-58
2020/12/04 18:12:48;;;;;;;3.70;1.25;;;18.60;64.40;;;;;;10461837;28;20112;-56
2020/12/04 18:17:52;;;;;;;6.05;1.52;;;18.60;64.40;;;;;;10462819;28;20032;-56
2020/12/04 18:22:52;;;;;;;4.65;1.30;;;18.50;64.60;;;;;;10462433;28;20112;-56
2020/12/04 18:27:53;;;;;;;4.00;1.25;;;18.40;64.50;;;;;;10460808;28;20438;-56
2020/12/04 18:32:54;;;;;;;3.13;0.95;;;18.50;64.80;;;;;;10472619;28;20016;-55
2020/12/04 18:37:56;;;;;;;4.53;1.25;;;18.60;64.70;;;;;;10462955;28;20071;-54
2020/12/04 18:42:56;;;;;;;3.40;1.15;;;18.60;64.50;;;;;;10466214;28;20110;-55
2020/12/04 18:47:57;;;;;;;4.47;1.05;;;18.60;64.30;;;;;;10465574;28;20029;-57
2020/12/04 18:52:58;;;;;;;3.00;1.08;;;18.60;64.20;;;;;;10488859;28;20413;-56
2020/12/04 18:57:58;;;;;;;3.58;0.93;;;18.60;64.20;;;;;;10453967;28;20040;-56
2020/12/04 19:02:59;;;;;;;4.90;1.10;;;18.60;64.60;;;;;;10446204;28;20532;-55
2020/12/04 19:08:00;;;;;;;5.15;1.25;;;18.60;64.10;;;;;;10424547;28;20033;-55
2020/12/04 19:13:01;;;;;;;3.15;1.00;;;18.60;64.00;;;;;;10446742;28;20075;-55
2020/12/04 19:18:04;;;;;;;1.17;0.65;;;18.60;64.10;;;;;;10453833;28;20031;-56
2020/12/04 19:23:05;;;;;;;3.17;1.02;;;18.60;63.90;;;;;;10438885;28;20037;-56
2020/12/04 19:28:06;;;;;;;6.45;1.02;;;18.60;64.10;;;;;;10433877;28;20025;-56
2020/12/04 19:33:06;;;;;;;4.18;0.80;;;18.60;63.90;;;;;;10438310;28;20025;-56
2020/12/04 19:38:07;;;;;;;2.35;0.90;;;18.60;64.10;;;;;;10436655;28;20047;-59
2020/12/04 19:43:12;;;;;;;7.07;0.82;;;18.70;63.90;;;;;;10432865;28;20429;-56
2020/12/04 19:48:13;;;;;;;1.92;0.90;;;18.60;64.10;;;;;;10449004;28;20029;-56
2020/12/04 19:53:14;;;;;;;2.03;0.82;;;18.70;63.90;;;;;;10454482;28;20078;-56
2020/12/04 19:58:15;;;;;;;1.80;0.70;;;18.70;64.10;;;;;;10449532;28;20724;-57
2020/12/04 20:03:17;;;;;;;2.40;0.80;;;18.70;64.00;;;;;;10455896;28;20385;-55
2020/12/04 20:08:17;;;;;;;2.33;0.90;;;18.70;64.10;;;;;;10459634;28;20040;-58
2020/12/04 20:13:18;;;;;;;2.22;0.73;;;18.60;64.10;;;;;;10481965;28;20035;-57
2020/12/04 20:18:19;;;;;;;5.80;0.73;;;18.50;64.40;;;;;;10463147;28;20029;-57
2020/12/04 20:23:23;;;;;;;2.55;1.02;;;18.40;64.80;;;;;;10454419;28;20029;-57
2020/12/04 20:28:24;;;;;;;2.08;0.70;;;18.30;65.10;;;;;;10455494;28;20099;-57
2020/12/04 20:33:24;;;;;;;3.80;0.88;;;18.20;65.30;;;;;;10459016;28;20119;-56
2020/12/04 20:38:25;;;;;;;1.75;0.50;;;18.10;65.50;;;;;;10480665;28;20044;-56
2020/12/04 20:43:26;;;;;;;2.58;0.80;;;18.00;65.70;;;;;;10461937;28;20067;-57
2020/12/04 20:48:27;;;;;;;3.58;0.80;;;17.80;66.10;;;;;;10461006;28;20049;-57
2020/12/04 20:53:28;;;;;;;3.03;1.00;;;17.80;66.40;;;;;;10466276;28;20104;-57
2020/12/04 20:58:29;;;;;;;3.25;0.80;;;17.70;66.70;;;;;;10464959;28;20059;-57
2020/12/04 21:03:30;;;;;;;3.38;1.08;;;17.60;66.80;;;;;;10466994;28;20488;-56
2020/12/04 21:08:31;;;;;;;3.85;0.77;;;17.50;67.00;;;;;;10466681;28;20078;-56
2020/12/04 21:13:32;;;;;;;2.65;1.10;;;17.40;67.00;;;;;;10464460;28;20032;-56
2020/12/04 21:18:33;;;;;;;1.42;0.70;;;17.40;67.10;;;;;;10461525;28;20435;-57
2020/12/04 21:23:33;;;;;;;3.28;1.05;;;17.30;67.10;;;;;;10459885;28;20017;-57
2020/12/04 21:28:35;;;;;;;3.05;1.15;;;17.30;67.10;;;;;;10452874;28;20120;-55
2020/12/04 21:33:36;;;;;;;2.65;0.80;;;17.20;67.10;;;;;;10455021;28;20036;-57
2020/12/04 21:38:37;;;;;;;1.38;0.70;;;17.10;67.00;;;;;;10454217;28;20481;-57
2020/12/04 21:43:37;;;;;;;1.45;0.90;;;17.10;67.00;;;;;;10457336;28;20033;-57
2020/12/04 21:48:38;;;;;;;2.90;0.95;;;17.00;66.90;;;;;;10454088;28;20112;-56
2020/12/04 21:53:39;;;;;;;1.70;0.88;;;17.00;66.90;;;;;;10451433;28;20457;-57
2020/12/04 21:58:40;;;;;;;1.95;1.00;;;17.00;66.80;;;;;;10453990;28;20040;-56
2020/12/04 22:03:41;;;;;;;2.10;0.90;;;16.90;66.70;;;;;;10469609;28;20028;-57
2020/12/04 22:08:41;;;;;;;2.05;0.90;;;16.90;67.30;;;;;;10453846;28;20112;-57
2020/12/04 22:13:42;;;;;;;0.80;0.50;;;16.90;66.70;;;;;;10453867;28;20489;-57
2020/12/04 22:18:42;;;;;;;2.33;0.88;;;16.80;66.60;;;;;;10453771;28;20056;-57
2020/12/04 22:23:44;;;;;;;2.97;0.88;;;16.80;66.60;;;;;;10444054;28;20441;-57
2020/12/04 22:28:46;;;;;;;2.22;1.02;;;16.70;66.60;;;;;;10460972;28;20033;-57
2020/12/04 22:33:47;;;;;;;1.10;0.60;;;16.70;66.60;;;;;;10460023;28;20052;-57
2020/12/04 22:38:50;;;;;;;1.65;0.95;;;16.70;66.60;;;;;;10460282;28;20052;-58
2020/12/04 22:43:51;;;;;;;1.58;0.50;;;16.60;66.50;;;;;;10465594;28;20100;-57
2020/12/04 22:48:51;;;;;;;1.25;0.82;;;16.60;66.50;;;;;;10460212;28;20025;-57
2020/12/04 22:53:52;;;;;;;2.42;0.90;;;16.50;66.40;;;;;;10460059;28;20112;-57
2020/12/04 22:58:53;;;;;;;3.20;1.33;;;16.50;66.30;;;;;;10458426;28;20170;-57
2020/12/04 23:03:56;;;;;;;1.17;0.70;;;16.50;66.20;;;;;;10459687;28;20025;-56
2020/12/04 23:08:57;;;;;;;2.60;1.10;;;16.50;66.20;;;;;;10458931;28;20131;-57
2020/12/04 23:13:58;;;;;;;2.13;0.80;;;16.50;66.20;;;;;;10451055;28;20037;-57
2020/12/04 23:18:59;;;;;;;2.80;1.42;;;16.40;66.10;;;;;;10459475;28;20544;-57
2020/12/04 23:23:59;;;;;;;2.08;0.85;;;16.40;66.10;;;;;;10452685;28;20048;-57
2020/12/04 23:29:00;;;;;;;1.88;0.90;;;16.40;66.20;;;;;;10458334;28;20477;-57
2020/12/04 23:34:01;;;;;;;1.17;1.02;;;16.30;66.20;;;;;;10456559;28;20094;-56
2020/12/04 23:39:02;;;;;;;3.08;1.20;;;16.40;66.10;;;;;;10456877;28;20127;-56
2020/12/04 23:44:03;;;;;;;1.52;0.95;;;16.30;66.10;;;;;;10461056;28;20025;-57
2020/12/04 23:49:03;;;;;;;1.30;0.98;;;16.30;66.00;;;;;;10457404;28;20056;-56
2020/12/04 23:54:06;;;;;;;3.55;1.42;;;16.30;66.00;;;;;;10457841;28;20024;-57
2020/12/04 23:59:06;;;;;;;2.50;1.20;;;16.30;65.90;;;;;;10447090;28;20079;-57
